Spring Grove Heights, Indiana
Current Conditions -  °F | °C
As of 7:55 AM on Tuesday 21 Oct 2014 (Local Time) from KVES Reporting Station
Broken Clouds Broken Clouds  
Wind Chill: 41°   Ceiling: 6000
Heat Index: 45°   Visibility: 10mi
Dew Point: 43°   Wind: 7mph
Humidity: 93%   Direction: 320°NW
Pressure: 29.98"   Gusts: NA
Location:  39.8311°N, 84.8879°W
Report Text: KVES 211155Z AUTO 32006KT 10SM SCT046 BKN060 07/06 A2998 RMK AO2
Loading
Personal Weather Stations






























Interactive Weather Map
Tropical Storm Tracking
New forecast layout! Learn more

10-Day Weather Forecast

Advertisements
Track Severe Weather on mobile